Time;durP1;ratioP1;P1;durP2;ratioP2;P2;SDS_P1;SDS_P2;PMS_P1;PMS_P2;Temp;Humidity;BMP_temperature;BMP_pressure;BME280_temperature;BME280_humidity;BME280_pressure;Samples;Min_cycle;Max_cycle;Signal;HPM_P1;HPM_P2
2024/03/29 00:00:31;;;;;;;2.08;1.05;;;10.50;81.30;;;;;;2095542;28;20111;-69
2024/03/29 00:01:32;;;;;;;1.88;0.80;;;10.50;81.30;;;;;;2094714;28;20046;-67
2024/03/29 00:02:32;;;;;;;2.70;0.63;;;10.50;81.40;;;;;;2092543;28;20036;-67
2024/03/29 00:03:33;;;;;;;5.97;0.98;;;10.50;81.10;;;;;;2086118;28;20029;-67
2024/03/29 00:04:33;;;;;;;2.33;0.95;;;10.50;81.30;;;;;;2085135;28;20519;-68
2024/03/29 00:05:34;;;;;;;4.60;0.88;;;10.50;81.20;;;;;;2093841;28;20603;-69
2024/03/29 00:06:34;;;;;;;4.22;0.88;;;10.50;81.00;;;;;;2094555;28;20090;-67
2024/03/29 00:07:35;;;;;;;6.70;1.08;;;10.50;81.00;;;;;;2084797;28;20136;-68
2024/03/29 00:08:37;;;;;;;4.88;0.80;;;10.50;81.00;;;;;;2095705;28;20025;-68
2024/03/29 00:09:37;;;;;;;2.35;0.70;;;10.50;81.20;;;;;;2094455;28;20745;-67
2024/03/29 00:10:38;;;;;;;5.28;1.80;;;10.50;81.10;;;;;;2094804;28;20396;-68
2024/03/29 00:11:39;;;;;;;2.70;0.77;;;10.50;81.00;;;;;;2087978;28;20021;-68
2024/03/29 00:12:39;;;;;;;2.28;0.77;;;10.50;81.00;;;;;;2087521;28;20028;-68
2024/03/29 00:13:40;;;;;;;3.45;0.75;;;10.50;81.10;;;;;;2094328;28;20067;-68
2024/03/29 00:14:40;;;;;;;2.60;0.90;;;10.50;81.00;;;;;;2096552;28;20036;-69
2024/03/29 00:15:41;;;;;;;3.45;1.10;;;10.50;81.00;;;;;;2094090;28;20082;-67
2024/03/29 00:16:41;;;;;;;3.10;0.93;;;10.50;80.80;;;;;;2094852;28;20060;-67
2024/03/29 00:17:42;;;;;;;3.40;0.75;;;10.50;80.70;;;;;;2094937;28;20582;-67
2024/03/29 00:18:42;;;;;;;1.52;0.80;;;10.50;80.80;;;;;;2093605;28;20180;-67
2024/03/29 00:19:43;;;;;;;4.07;0.80;;;10.50;80.80;;;;;;2095401;28;20055;-67
2024/03/29 00:20:43;;;;;;;3.90;1.25;;;10.50;80.80;;;;;;2094164;28;20044;-68
2024/03/29 00:21:47;;;;;;;2.67;1.05;;;10.50;80.60;;;;;;2094105;28;20025;-66
2024/03/29 00:22:47;;;;;;;2.92;0.80;;;10.50;80.80;;;;;;2094368;28;20452;-69
2024/03/29 00:23:50;;;;;;;1.70;0.63;;;10.50;80.80;;;;;;2094834;28;20051;-67
2024/03/29 00:24:51;;;;;;;4.65;1.10;;;10.50;80.60;;;;;;2093925;28;20013;-68
2024/03/29 00:25:51;;;;;;;2.88;1.10;;;10.50;80.50;;;;;;2092578;28;20036;-68
2024/03/29 00:26:52;;;;;;;1.55;0.88;;;10.50;80.50;;;;;;2093310;28;20055;-67
2024/03/29 00:27:53;;;;;;;3.58;0.95;;;10.50;80.60;;;;;;2093538;28;20028;-67
2024/03/29 00:28:53;;;;;;;3.15;0.95;;;10.50;80.60;;;;;;2094381;28;20470;-67
2024/03/29 00:29:54;;;;;;;3.15;0.98;;;10.50;80.60;;;;;;2095759;28;20428;-68
2024/03/29 00:30:55;;;;;;;2.70;0.82;;;10.50;80.60;;;;;;2094026;28;20024;-67
2024/03/29 00:31:55;;;;;;;4.18;1.02;;;10.50;80.40;;;;;;2093617;28;20031;-68
2024/03/29 00:32:56;;;;;;;2.53;1.05;;;10.60;80.40;;;;;;2094721;28;20075;-68
2024/03/29 00:33:56;;;;;;;4.05;0.80;;;10.50;80.30;;;;;;2094464;28;20025;-68
2024/03/29 00:34:57;;;;;;;3.22;0.82;;;10.60;80.40;;;;;;2092643;28;20017;-68
2024/03/29 00:35:58;;;;;;;3.40;1.15;;;10.60;80.40;;;;;;2095738;28;20028;-68
2024/03/29 00:37:01;;;;;;;3.53;0.70;;;10.60;80.50;;;;;;2093638;28;20108;-68
2024/03/29 00:38:02;;;;;;;4.45;1.17;;;10.60;80.40;;;;;;2094455;28;20407;-67
2024/03/29 00:39:03;;;;;;;2.15;0.98;;;10.60;80.40;;;;;;2093003;28;20025;-67
2024/03/29 00:40:03;;;;;;;2.40;1.05;;;10.60;80.40;;;;;;2092750;28;20524;-66
2024/03/29 00:41:04;;;;;;;5.15;0.90;;;10.60;80.30;;;;;;2094643;28;20024;-67
2024/03/29 00:42:08;;;;;;;3.00;0.70;;;10.60;80.30;;;;;;2094745;28;20025;-67
2024/03/29 00:43:10;;;;;;;5.38;1.77;;;10.50;80.50;;;;;;2093538;28;20039;-67
2024/03/29 00:44:10;;;;;;;1.83;0.55;;;10.60;80.50;;;;;;2094927;28;20023;-66
2024/03/29 00:45:11;;;;;;;2.40;0.80;;;10.50;80.40;;;;;;2094675;28;20548;-67
2024/03/29 00:46:11;;;;;;;4.13;0.93;;;10.60;81.10;;;;;;2094352;28;20501;-67
2024/03/29 00:47:13;;;;;;;2.92;0.90;;;10.50;80.30;;;;;;2093275;28;20140;-67
2024/03/29 00:48:15;;;;;;;4.20;0.80;;;10.50;80.30;;;;;;2094325;28;20052;-68
2024/03/29 00:49:15;;;;;;;3.80;0.90;;;10.60;80.40;;;;;;2093443;28;20020;-67
2024/03/29 00:50:16;;;;;;;3.25;0.80;;;10.50;80.50;;;;;;2094858;28;20028;-67
2024/03/29 00:51:16;;;;;;;1.95;0.77;;;10.60;80.50;;;;;;2092535;28;20423;-67
2024/03/29 00:52:17;;;;;;;2.78;0.80;;;10.50;80.40;;;;;;2095201;28;20063;-67
2024/03/29 00:53:17;;;;;;;3.30;1.00;;;10.60;80.50;;;;;;2094023;28;20473;-67
2024/03/29 00:54:19;;;;;;;2.65;0.73;;;10.50;80.40;;;;;;2093545;28;20071;-66
2024/03/29 00:55:19;;;;;;;2.38;0.70;;;10.50;80.40;;;;;;2094585;28;20035;-67
2024/03/29 00:56:20;;;;;;;1.92;0.70;;;10.60;80.60;;;;;;2093163;28;20074;-66
2024/03/29 00:57:20;;;;;;;3.50;0.98;;;10.50;80.30;;;;;;2092844;28;20025;-68
2024/03/29 00:58:21;;;;;;;2.90;1.00;;;10.50;80.30;;;;;;2094223;28;20108;-67
2024/03/29 00:59:22;;;;;;;2.90;0.90;;;10.50;80.30;;;;;;2094542;28;20027;-68
2024/03/29 01:00:23;;;;;;;4.88;1.80;;;10.50;80.40;;;;;;2094267;28;20087;-67
2024/03/29 01:01:23;;;;;;;1.80;0.88;;;10.50;80.50;;;;;;2092902;28;20028;-67
2024/03/29 01:02:24;;;;;;;3.85;0.82;;;10.50;80.40;;;;;;2092527;28;20066;-67
2024/03/29 01:03:24;;;;;;;2.30;0.77;;;10.50;80.40;;;;;;2094749;28;20472;-67
2024/03/29 01:04:25;;;;;;;2.75;0.93;;;10.50;80.60;;;;;;2094291;28;20017;-67
2024/03/29 01:05:25;;;;;;;3.35;1.00;;;10.50;80.50;;;;;;2094834;28;20033;-67
2024/03/29 01:06:26;;;;;;;1.63;0.75;;;10.50;80.30;;;;;;2094440;28;20403;-66
2024/03/29 01:07:26;;;;;;;3.30;0.90;;;10.50;80.30;;;;;;2092753;28;20020;-67
2024/03/29 01:08:27;;;;;;;1.27;0.68;;;10.50;80.40;;;;;;2093946;28;20056;-67
2024/03/29 01:09:27;;;;;;;4.93;0.75;;;10.50;80.40;;;;;;2093083;28;20063;-69
2024/03/29 01:10:28;;;;;;;2.25;0.70;;;10.50;80.40;;;;;;2083853;28;20033;-67
2024/03/29 01:11:29;;;;;;;4.00;0.88;;;10.50;80.30;;;;;;2084588;28;20049;-68
2024/03/29 01:12:30;;;;;;;1.33;0.80;;;10.50;80.30;;;;;;2093795;28;20028;-67
2024/03/29 01:13:30;;;;;;;1.75;0.65;;;10.50;80.50;;;;;;2094152;28;20025;-68
2024/03/29 01:14:31;;;;;;;2.35;0.90;;;10.50;80.50;;;;;;2095259;28;20029;-66
2024/03/29 01:15:31;;;;;;;2.40;0.70;;;10.50;80.30;;;;;;2093997;28;20107;-68
2024/03/29 01:16:33;;;;;;;2.25;0.70;;;10.50;80.40;;;;;;2095312;28;20029;-67
2024/03/29 01:17:33;;;;;;;2.08;0.63;;;10.50;80.40;;;;;;2092980;28;20021;-67
2024/03/29 01:18:34;;;;;;;3.15;0.98;;;10.50;80.10;;;;;;2093489;28;20314;-67
2024/03/29 01:19:34;;;;;;;2.85;1.00;;;10.50;80.30;;;;;;2091818;28;20028;-67
2024/03/29 01:20:35;;;;;;;2.83;0.70;;;10.50;80.30;;;;;;2084869;28;20048;-67
2024/03/29 01:21:36;;;;;;;2.83;0.82;;;10.50;80.30;;;;;;2094720;28;20040;-67
2024/03/29 01:22:37;;;;;;;2.13;0.60;;;10.50;80.30;;;;;;2093153;28;20024;-66
2024/03/29 01:23:37;;;;;;;2.05;0.60;;;10.50;80.30;;;;;;2092859;28;20031;-68
2024/03/29 01:24:38;;;;;;;1.40;0.50;;;10.50;80.30;;;;;;2093822;28;20419;-67
2024/03/29 01:25:39;;;;;;;0.63;0.30;;;10.50;80.30;;;;;;2095378;28;20051;-67
2024/03/29 01:26:39;;;;;;;4.78;0.90;;;10.50;80.10;;;;;;2093854;28;20075;-67
2024/03/29 01:27:40;;;;;;;2.28;0.80;;;10.50;80.00;;;;;;2091547;28;20456;-68
2024/03/29 01:28:40;;;;;;;2.25;0.57;;;10.50;80.10;;;;;;2093644;28;20024;-67
2024/03/29 01:29:41;;;;;;;1.80;0.60;;;10.50;80.10;;;;;;2093646;28;20370;-67
2024/03/29 01:30:41;;;;;;;4.40;1.20;;;10.50;79.90;;;;;;2087140;28;20040;-67
2024/03/29 01:31:42;;;;;;;5.10;0.90;;;10.50;80.10;;;;;;2086845;28;20049;-66
2024/03/29 01:32:42;;;;;;;1.50;0.55;;;10.50;80.10;;;;;;2095424;28;20435;-68
2024/03/29 01:33:43;;;;;;;3.20;0.90;;;10.50;80.10;;;;;;2091862;28;20021;-67
2024/03/29 01:34:43;;;;;;;1.85;0.60;;;10.50;80.00;;;;;;2092524;28;20028;-66
2024/03/29 01:35:44;;;;;;;2.22;1.00;;;10.50;80.00;;;;;;2092247;28;20500;-67
2024/03/29 01:36:46;;;;;;;2.55;0.80;;;10.50;80.10;;;;;;2093880;28;20039;-67
2024/03/29 01:37:46;;;;;;;1.77;0.85;;;10.50;80.10;;;;;;2092393;28;20048;-67
2024/03/29 01:38:49;;;;;;;2.75;0.70;;;10.50;80.10;;;;;;2091826;28;20016;-67
2024/03/29 01:39:49;;;;;;;1.90;0.68;;;10.50;80.10;;;;;;2094634;28;20013;-66
2024/03/29 01:40:50;;;;;;;3.60;0.95;;;10.50;80.10;;;;;;2095867;28;20091;-67
2024/03/29 01:41:51;;;;;;;4.18;0.70;;;10.50;80.10;;;;;;2093976;28;20017;-67
2024/03/29 01:42:54;;;;;;;2.25;0.75;;;10.50;80.20;;;;;;2092108;28;21356;-67
2024/03/29 01:43:55;;;;;;;2.78;0.75;;;10.50;80.30;;;;;;2094816;28;20029;-67
2024/03/29 01:44:56;;;;;;;2.90;1.08;;;10.50;80.50;;;;;;2093544;28;20030;-67
2024/03/29 01:45:57;;;;;;;2.15;0.77;;;10.50;80.50;;;;;;2092677;28;20649;-68
2024/03/29 01:46:57;;;;;;;2.33;0.47;;;10.50;80.50;;;;;;2092212;28;20062;-67
2024/03/29 01:47:58;;;;;;;3.20;0.90;;;10.50;80.50;;;;;;2094776;28;20032;-67
2024/03/29 01:48:59;;;;;;;2.38;0.80;;;10.50;80.40;;;;;;2093425;28;20052;-68
2024/03/29 01:49:59;;;;;;;2.38;0.82;;;10.50;80.30;;;;;;2093795;28;20074;-66
2024/03/29 01:51:01;;;;;;;2.50;0.52;;;10.40;80.40;;;;;;2093321;28;20025;-66
2024/03/29 01:52:03;;;;;;;2.28;0.60;;;10.40;80.30;;;;;;2095723;28;20060;-66
2024/03/29 01:53:07;;;;;;;1.65;0.75;;;10.40;80.40;;;;;;2093177;28;20029;-67
2024/03/29 01:54:10;;;;;;;2.30;0.70;;;10.40;80.40;;;;;;2093890;28;20043;-67
2024/03/29 01:55:10;;;;;;;2.63;0.80;;;10.50;80.60;;;;;;2093214;28;20028;-67
2024/03/29 01:56:11;;;;;;;1.95;0.60;;;10.40;80.50;;;;;;2091218;28;20493;-67
2024/03/29 01:57:13;;;;;;;3.03;0.93;;;10.40;80.20;;;;;;2092053;28;20028;-67
2024/03/29 01:58:14;;;;;;;3.72;0.90;;;10.40;80.40;;;;;;2095797;28;20031;-68
2024/03/29 01:59:17;;;;;;;2.15;0.60;;;10.50;80.50;;;;;;2093325;28;20433;-67
2024/03/29 02:00:18;;;;;;;2.25;0.60;;;10.50;80.40;;;;;;2094357;28;20020;-67
2024/03/29 02:01:19;;;;;;;1.90;1.33;;;10.50;80.50;;;;;;2094147;28;20048;-67
2024/03/29 02:02:20;;;;;;;3.42;0.90;;;10.40;80.50;;;;;;2092575;28;20108;-67
2024/03/29 02:03:22;;;;;;;2.05;0.70;;;10.50;80.30;;;;;;2094723;28;20020;-68
2024/03/29 02:04:23;;;;;;;1.63;0.52;;;10.50;80.40;;;;;;2092514;28;20044;-68
2024/03/29 02:05:24;;;;;;;2.67;0.90;;;10.50;80.40;;;;;;2093695;28;20052;-67
2024/03/29 02:06:25;;;;;;;3.20;0.88;;;10.50;80.30;;;;;;2093927;28;20028;-66
2024/03/29 02:07:26;;;;;;;4.75;0.70;;;10.50;80.20;;;;;;2092453;28;20494;-67
2024/03/29 02:08:28;;;;;;;3.28;0.90;;;10.50;80.10;;;;;;2092741;28;20020;-67
2024/03/29 02:09:28;;;;;;;2.22;0.52;;;10.50;80.10;;;;;;2093434;28;20646;-67
2024/03/29 02:10:29;;;;;;;4.20;0.70;;;10.50;80.10;;;;;;2092613;28;20029;-67
2024/03/29 02:11:30;;;;;;;1.83;0.60;;;10.50;80.00;;;;;;2092111;28;20028;-66
2024/03/29 02:12:31;;;;;;;3.50;0.85;;;10.60;80.10;;;;;;2094437;28;20055;-67
2024/03/29 02:13:31;;;;;;;4.68;0.90;;;10.60;79.90;;;;;;2093072;28;20032;-67
2024/03/29 02:14:32;;;;;;;2.83;0.88;;;10.60;79.90;;;;;;2094185;28;20119;-66
2024/03/29 02:15:33;;;;;;;1.92;0.63;;;10.60;80.60;;;;;;2093754;28;20056;-67
2024/03/29 02:16:34;;;;;;;3.20;0.80;;;10.60;79.90;;;;;;2093705;28;20025;-67
2024/03/29 02:17:34;;;;;;;2.45;0.63;;;10.70;79.70;;;;;;2091347;28;20516;-67
2024/03/29 02:18:35;;;;;;;2.45;0.77;;;10.60;79.70;;;;;;2091729;28;20029;-67
2024/03/29 02:19:35;;;;;;;3.13;0.93;;;10.60;79.70;;;;;;2094462;28;20482;-67
2024/03/29 02:20:37;;;;;;;0.70;0.43;;;10.60;79.70;;;;;;2094336;28;20119;-68
2024/03/29 02:21:43;;;;;;;3.00;0.73;;;10.70;79.40;;;;;;2096284;28;20020;-67
2024/03/29 02:23:08;;;;;;;1.80;0.55;;;10.60;79.50;;;;;;2093319;28;20428;-68
2024/03/29 02:24:10;;;;;;;1.55;0.70;;;10.70;79.50;;;;;;2084926;28;20055;-67
2024/03/29 02:25:12;;;;;;;3.42;1.10;;;10.70;79.50;;;;;;2092729;28;20023;-67
2024/03/29 02:26:13;;;;;;;2.05;0.60;;;10.70;80.20;;;;;;2094046;28;20047;-67
2024/03/29 02:27:13;;;;;;;1.85;0.70;;;10.70;79.60;;;;;;2091055;28;20029;-67
2024/03/29 02:28:15;;;;;;;2.28;0.75;;;10.70;79.40;;;;;;2095194;28;20032;-67
2024/03/29 02:29:15;;;;;;;1.88;0.68;;;10.70;79.30;;;;;;2092921;28;20478;-67
2024/03/29 02:30:19;;;;;;;2.92;1.00;;;10.70;79.30;;;;;;2094560;28;20275;-66
2024/03/29 02:31:19;;;;;;;2.72;1.20;;;10.70;79.40;;;;;;2093630;28;20032;-67
2024/03/29 02:32:20;;;;;;;2.28;0.70;;;10.80;79.30;;;;;;2091294;28;20104;-67
2024/03/29 02:33:23;;;;;;;1.77;0.70;;;10.80;79.30;;;;;;2093307;28;20070;-68
2024/03/29 02:34:24;;;;;;;1.65;0.60;;;10.80;79.30;;;;;;2092746;28;20464;-67
2024/03/29 02:35:25;;;;;;;4.20;0.93;;;10.70;79.20;;;;;;2096107;28;20028;-67
2024/03/29 02:36:26;;;;;;;4.47;0.70;;;10.80;79.00;;;;;;2097355;28;20013;-67
2024/03/29 02:37:26;;;;;;;3.78;1.25;;;10.80;79.10;;;;;;2097500;28;20086;-68
2024/03/29 02:38:27;;;;;;;2.45;0.82;;;10.80;79.00;;;;;;2096078;28;20028;-67
2024/03/29 02:39:28;;;;;;;2.65;0.88;;;10.80;79.10;;;;;;2095033;28;20099;-68
2024/03/29 02:40:28;;;;;;;2.92;1.02;;;10.80;79.00;;;;;;2097205;28;20024;-66
2024/03/29 02:41:30;;;;;;;2.70;0.80;;;10.80;79.10;;;;;;2095665;28;20025;-68
2024/03/29 02:42:30;;;;;;;2.85;0.80;;;10.80;79.20;;;;;;2096872;28;20385;-67
2024/03/29 02:43:31;;;;;;;1.58;0.60;;;10.80;79.00;;;;;;2096679;28;20041;-66
2024/03/29 02:44:32;;;;;;;1.67;0.85;;;10.80;78.90;;;;;;2089604;28;20445;-66
2024/03/29 02:45:32;;;;;;;2.75;0.80;;;10.80;79.00;;;;;;2091082;28;20417;-66
2024/03/29 02:46:33;;;;;;;1.13;0.52;;;10.80;79.10;;;;;;2094384;28;20044;-66
2024/03/29 02:47:33;;;;;;;3.67;0.77;;;10.80;78.70;;;;;;2095888;28;20031;-67
2024/03/29 02:48:34;;;;;;;2.03;0.80;;;10.80;78.80;;;;;;2095433;28;20388;-66
2024/03/29 02:49:34;;;;;;;2.13;1.15;;;10.80;78.90;;;;;;2095749;28;20032;-67
2024/03/29 02:50:35;;;;;;;2.22;0.82;;;10.80;78.90;;;;;;2098204;28;20136;-67
2024/03/29 02:51:36;;;;;;;3.72;0.80;;;10.90;79.00;;;;;;2096478;28;20028;-67
2024/03/29 02:52:36;;;;;;;2.33;0.85;;;10.90;78.90;;;;;;2096599;28;20036;-68
2024/03/29 02:53:38;;;;;;;2.60;0.80;;;10.90;79.10;;;;;;2094430;28;20024;-67
2024/03/29 02:54:39;;;;;;;2.65;0.65;;;10.90;78.90;;;;;;2096479;28;20016;-66
2024/03/29 02:55:42;;;;;;;1.90;0.70;;;10.90;78.70;;;;;;2096248;28;20028;-66
2024/03/29 02:56:42;;;;;;;1.35;0.82;;;10.90;78.90;;;;;;2095538;28;20115;-67
2024/03/29 02:57:43;;;;;;;2.72;0.77;;;10.90;78.90;;;;;;2096669;28;20496;-69
2024/03/29 02:58:43;;;;;;;3.65;1.10;;;10.90;78.70;;;;;;2096388;28;20121;-67
2024/03/29 02:59:44;;;;;;;2.97;0.77;;;10.90;78.60;;;;;;2096079;28;20107;-65
2024/03/29 03:00:44;;;;;;;3.85;0.75;;;10.90;78.80;;;;;;2097379;28;20397;-67
2024/03/29 03:01:45;;;;;;;1.45;0.75;;;10.90;78.60;;;;;;2096066;28;20025;-66
2024/03/29 03:02:45;;;;;;;2.33;0.73;;;10.90;78.40;;;;;;2095025;28;20032;-66
2024/03/29 03:03:46;;;;;;;2.78;0.55;;;10.90;77.80;;;;;;2096740;28;20024;-67
2024/03/29 03:04:47;;;;;;;4.32;1.25;;;11.00;78.00;;;;;;2095728;28;20067;-67
2024/03/29 03:05:47;;;;;;;1.75;0.70;;;11.00;78.10;;;;;;2087397;28;20069;-68
2024/03/29 03:06:48;;;;;;;1.27;0.60;;;11.00;78.00;;;;;;2087569;28;20029;-67
2024/03/29 03:11:45;;;;;;;0.85;0.52;;;11.10;77.60;;;;;;2097215;28;20020;-66
2024/03/29 03:12:46;;;;;;;2.15;0.75;;;11.10;77.60;;;;;;2095735;28;20024;-67
2024/03/29 03:13:46;;;;;;;1.17;0.60;;;11.10;77.70;;;;;;2094587;28;20031;-68
2024/03/29 03:14:47;;;;;;;0.95;0.47;;;11.10;77.60;;;;;;2094872;28;20021;-67
2024/03/29 03:15:48;;;;;;;2.35;0.70;;;11.20;77.50;;;;;;2095643;28;20025;-67
2024/03/29 03:16:48;;;;;;;1.10;0.60;;;11.20;77.50;;;;;;2096362;28;20758;-67
2024/03/29 03:17:49;;;;;;;4.28;0.77;;;11.20;77.50;;;;;;2095509;28;20052;-67
2024/03/29 03:18:50;;;;;;;2.13;0.82;;;11.20;77.50;;;;;;2095055;28;20024;-66
2024/03/29 03:19:52;;;;;;;1.02;0.60;;;11.20;77.60;;;;;;2097383;28;20028;-67
2024/03/29 03:20:54;;;;;;;2.33;0.98;;;11.20;77.60;;;;;;2096370;28;20106;-66
2024/03/29 03:21:54;;;;;;;2.88;1.10;;;11.30;77.60;;;;;;2096398;28;20017;-66
2024/03/29 03:22:55;;;;;;;2.85;0.82;;;11.30;77.40;;;;;;2097295;28;20028;-67
2024/03/29 03:23:56;;;;;;;1.52;0.63;;;11.30;77.60;;;;;;2094435;28;20024;-68
2024/03/29 03:24:57;;;;;;;3.00;0.77;;;11.30;77.80;;;;;;2095016;28;20110;-68
2024/03/29 03:26:05;;;;;;;4.07;0.98;;;11.30;77.60;;;;;;2096684;28;20071;-67
2024/03/29 03:27:05;;;;;;;2.70;0.80;;;11.40;77.60;;;;;;2096419;28;20386;-67
2024/03/29 03:28:06;;;;;;;2.47;0.80;;;11.30;77.90;;;;;;2095588;28;20043;-66
2024/03/29 03:29:09;;;;;;;3.20;0.70;;;11.40;78.10;;;;;;2095810;28;20096;-66
2024/03/29 03:30:10;;;;;;;3.38;0.90;;;11.40;78.40;;;;;;2096757;28;20878;-67
2024/03/29 03:31:11;;;;;;;4.20;0.75;;;11.40;78.80;;;;;;2096111;28;20368;-68
2024/03/29 03:32:11;;;;;;;2.53;0.60;;;11.40;78.60;;;;;;2096782;28;20051;-66
2024/03/29 03:33:12;;;;;;;2.75;0.52;;;11.40;78.10;;;;;;2098881;28;20036;-66
2024/03/29 03:34:12;;;;;;;1.77;0.60;;;11.40;78.50;;;;;;2097149;28;20031;-66
2024/03/29 03:35:13;;;;;;;1.73;0.60;;;11.40;78.70;;;;;;2096776;28;20550;-66
2024/03/29 03:36:14;;;;;;;1.67;0.50;;;11.50;78.60;;;;;;2097349;28;20107;-67
2024/03/29 03:37:14;;;;;;;2.10;0.82;;;11.50;78.90;;;;;;2090484;28;20060;-67
2024/03/29 03:38:16;;;;;;;1.55;0.77;;;11.50;79.30;;;;;;2089417;28;20017;-67
2024/03/29 03:39:16;;;;;;;2.85;0.60;;;11.50;79.60;;;;;;2095142;28;20035;-67
2024/03/29 03:40:17;;;;;;;3.55;0.70;;;11.50;80.10;;;;;;2095600;28;20136;-67
2024/03/29 03:41:17;;;;;;;2.17;0.70;;;11.50;79.90;;;;;;2095546;28;20025;-67
2024/03/29 03:42:18;;;;;;;0.65;0.52;;;11.50;79.50;;;;;;2096194;28;20052;-67
2024/03/29 03:43:18;;;;;;;0.82;0.40;;;11.50;79.90;;;;;;2086175;28;20025;-66
2024/03/29 03:44:21;;;;;;;2.88;0.40;;;11.50;79.90;;;;;;2087447;28;20048;-67
2024/03/29 03:45:22;;;;;;;1.83;0.40;;;11.50;80.10;;;;;;2095662;28;20507;-67
2024/03/29 03:46:22;;;;;;;1.38;0.50;;;11.50;80.40;;;;;;2092856;28;20389;-67
2024/03/29 03:47:23;;;;;;;2.15;0.52;;;11.50;80.40;;;;;;2087285;28;20055;-66
2024/03/29 03:48:23;;;;;;;0.90;0.47;;;11.40;79.80;;;;;;2088272;28;20032;-66
2024/03/29 03:49:24;;;;;;;1.00;0.45;;;11.50;80.10;;;;;;2094162;28;20108;-66
2024/03/29 03:50:24;;;;;;;2.72;0.55;;;11.50;80.30;;;;;;2093547;28;20025;-66
2024/03/29 03:51:25;;;;;;;1.25;0.57;;;11.50;80.60;;;;;;2091289;28;20147;-66
2024/03/29 03:52:25;;;;;;;1.10;0.43;;;11.50;80.90;;;;;;2093283;28;20673;-66
2024/03/29 03:53:26;;;;;;;0.85;0.50;;;11.50;81.00;;;;;;2093104;28;20554;-66
2024/03/29 03:54:26;;;;;;;1.92;0.57;;;11.50;81.30;;;;;;2093591;28;20024;-66
2024/03/29 03:55:27;;;;;;;2.53;0.38;;;11.50;81.50;;;;;;2095932;28;20036;-68
2024/03/29 03:56:28;;;;;;;2.67;0.88;;;11.50;81.40;;;;;;2095701;28;20611;-67
2024/03/29 03:57:28;;;;;;;0.85;0.57;;;11.50;81.70;;;;;;2095652;28;20012;-66
2024/03/29 03:58:29;;;;;;;1.42;0.50;;;11.50;81.90;;;;;;2096154;28;20127;-66
2024/03/29 03:59:29;;;;;;;2.47;0.47;;;11.50;82.30;;;;;;2095492;28;20024;-66
2024/03/29 04:00:30;;;;;;;1.40;0.60;;;11.50;82.30;;;;;;2093890;28;20021;-70
2024/03/29 04:01:30;;;;;;;0.68;0.38;;;11.50;82.60;;;;;;2093877;28;20509;-66
2024/03/29 04:02:31;;;;;;;1.25;0.50;;;11.50;82.80;;;;;;2093579;28;20031;-67
2024/03/29 04:03:31;;;;;;;1.65;0.70;;;11.50;82.90;;;;;;2095049;28;20858;-66
2024/03/29 04:04:32;;;;;;;1.05;0.60;;;11.50;83.00;;;;;;2094539;28;20028;-66
2024/03/29 04:05:33;;;;;;;1.02;0.50;;;11.50;83.10;;;;;;2094631;28;20032;-66
2024/03/29 04:06:33;;;;;;;1.95;0.60;;;11.50;83.30;;;;;;2094932;28;20029;-67
2024/03/29 04:07:34;;;;;;;0.47;0.47;;;11.50;83.20;;;;;;2095181;28;20020;-66
2024/03/29 04:08:34;;;;;;;1.98;0.55;;;11.40;83.30;;;;;;2092938;28;20040;-66
2024/03/29 04:09:35;;;;;;;1.60;0.82;;;11.40;82.90;;;;;;2093999;28;20111;-65
2024/03/29 04:10:39;;;;;;;1.40;0.60;;;11.40;83.10;;;;;;2093813;28;20024;-66
2024/03/29 04:11:39;;;;;;;2.53;0.70;;;11.40;83.60;;;;;;2094718;28;20028;-67
2024/03/29 04:12:40;;;;;;;0.93;0.40;;;11.40;84.10;;;;;;2096084;28;20028;-66
2024/03/29 04:13:42;;;;;;;1.35;0.47;;;11.40;84.20;;;;;;2095809;28;20476;-66
2024/03/29 04:14:43;;;;;;;0.68;0.30;;;11.40;84.20;;;;;;2096247;28;20028;-66
2024/03/29 04:15:43;;;;;;;2.83;1.15;;;11.40;84.60;;;;;;2095292;28;20036;-67
2024/03/29 04:16:46;;;;;;;1.75;0.60;;;11.40;84.80;;;;;;2095540;28;20024;-66
2024/03/29 04:17:46;;;;;;;2.30;0.50;;;11.40;85.30;;;;;;2094803;28;20020;-66
2024/03/29 04:18:47;;;;;;;2.20;1.05;;;11.40;85.80;;;;;;2095379;28;20021;-66
2024/03/29 04:19:47;;;;;;;0.60;0.45;;;11.40;85.50;;;;;;2093564;28;20037;-66
2024/03/29 04:20:58;;;;;;;0.85;0.50;;;11.40;85.20;;;;;;2093153;28;20080;-66
2024/03/29 04:21:59;;;;;;;1.52;0.43;;;11.40;85.50;;;;;;2094557;28;20025;-66
2024/03/29 04:22:59;;;;;;;3.03;0.60;;;11.40;85.60;;;;;;2092039;28;20112;-66
2024/03/29 04:24:00;;;;;;;1.13;0.45;;;11.40;85.90;;;;;;2094999;28;20024;-66
2024/03/29 04:25:01;;;;;;;1.20;0.55;;;11.40;85.90;;;;;;2092492;28;20473;-67
2024/03/29 04:26:01;;;;;;;1.83;0.55;;;11.30;85.90;;;;;;2093155;28;20066;-66
2024/03/29 04:27:03;;;;;;;2.40;0.60;;;11.30;86.10;;;;;;2093337;28;20036;-66
2024/03/29 04:28:04;;;;;;;3.58;0.65;;;11.30;86.60;;;;;;2093682;28;20025;-66
2024/03/29 04:29:05;;;;;;;0.82;0.50;;;11.30;87.10;;;;;;2092903;28;20814;-65
2024/03/29 04:30:06;;;;;;;1.55;0.75;;;11.30;87.30;;;;;;2092378;28;20029;-66
2024/03/29 04:31:07;;;;;;;1.85;1.05;;;11.30;87.60;;;;;;2095005;28;20017;-66
2024/03/29 04:32:07;;;;;;;2.63;0.40;;;11.30;87.90;;;;;;2095096;28;20029;-67
2024/03/29 04:33:08;;;;;;;1.65;0.63;;;11.30;88.00;;;;;;2094556;28;20354;-66
2024/03/29 04:34:09;;;;;;;1.58;0.60;;;11.30;87.80;;;;;;2095757;28;20811;-66
2024/03/29 04:35:09;;;;;;;2.28;0.55;;;11.30;87.90;;;;;;2094500;28;20086;-65
2024/03/29 04:36:10;;;;;;;2.28;0.70;;;11.30;88.10;;;;;;2094311;28;20106;-66
2024/03/29 04:37:10;;;;;;;2.05;0.70;;;11.30;89.00;;;;;;2093115;28;20028;-66
2024/03/29 04:38:11;;;;;;;2.00;0.70;;;11.30;88.50;;;;;;2094597;28;20166;-66
2024/03/29 04:39:12;;;;;;;1.27;0.93;;;11.20;88.50;;;;;;2094244;28;20963;-67
2024/03/29 04:40:12;;;;;;;0.63;0.43;;;11.20;88.40;;;;;;2092877;28;20028;-66
2024/03/29 04:41:13;;;;;;;1.20;0.75;;;11.20;88.20;;;;;;2093432;28;20635;-66
2024/03/29 04:42:14;;;;;;;0.95;0.50;;;11.20;88.50;;;;;;2093380;28;20024;-66
2024/03/29 04:43:15;;;;;;;1.50;0.50;;;11.20;88.90;;;;;;2092708;28;20086;-66
2024/03/29 04:44:24;;;;;;;3.25;0.70;;;11.20;89.00;;;;;;2096351;28;20029;-66
2024/03/29 04:45:24;;;;;;;2.90;0.70;;;11.10;89.00;;;;;;2092697;28;20025;-66
2024/03/29 04:46:25;;;;;;;3.40;1.00;;;11.10;89.30;;;;;;2095463;28;20037;-67
2024/03/29 04:47:26;;;;;;;1.80;0.93;;;11.10;89.80;;;;;;2093609;28;20108;-66
2024/03/29 04:48:27;;;;;;;2.88;0.88;;;11.10;90.00;;;;;;2094600;28;20457;-67
2024/03/29 04:49:33;;;;;;;2.65;0.90;;;11.10;90.00;;;;;;2092211;28;20473;-68
2024/03/29 04:50:34;;;;;;;2.00;0.63;;;11.10;90.10;;;;;;2094739;28;20020;-66
2024/03/29 04:51:34;;;;;;;1.10;0.43;;;11.10;90.20;;;;;;2092832;28;20025;-67
2024/03/29 04:52:35;;;;;;;3.65;0.65;;;11.00;90.30;;;;;;2093599;28;20064;-66
2024/03/29 04:53:36;;;;;;;9.63;0.70;;;11.00;90.30;;;;;;2094992;28;20029;-67
2024/03/29 04:54:37;;;;;;;2.40;0.80;;;11.00;90.50;;;;;;2094116;28;20024;-67
2024/03/29 04:55:38;;;;;;;2.13;0.77;;;10.90;90.60;;;;;;2094335;28;20048;-67
2024/03/29 04:56:38;;;;;;;3.67;0.77;;;11.00;90.70;;;;;;2094415;28;20055;-67
2024/03/29 04:57:39;;;;;;;1.83;0.70;;;10.90;90.70;;;;;;2092279;28;20025;-66
2024/03/29 04:58:39;;;;;;;1.60;0.70;;;10.80;90.80;;;;;;2095599;28;20576;-66
2024/03/29 04:59:40;;;;;;;3.53;0.73;;;10.80;91.10;;;;;;2093035;28;20024;-66
2024/03/29 05:00:42;;;;;;;1.23;0.60;;;10.80;91.20;;;;;;2096202;28;20095;-67
2024/03/29 05:01:50;;;;;;;3.28;0.73;;;10.80;91.30;;;;;;2095514;28;20027;-66
2024/03/29 05:02:51;;;;;;;4.10;0.85;;;10.80;91.60;;;;;;2093545;28;20082;-67
2024/03/29 05:03:51;;;;;;;2.50;0.90;;;10.70;91.80;;;;;;2096820;28;20086;-66
2024/03/29 05:04:53;;;;;;;2.45;0.80;;;10.70;92.10;;;;;;2094329;28;20032;-67
2024/03/29 05:05:53;;;;;;;3.55;0.85;;;10.70;92.30;;;;;;2094466;28;20476;-66
2024/03/29 05:06:56;;;;;;;2.65;0.88;;;10.70;92.50;;;;;;2092257;28;20488;-66
2024/03/29 05:07:56;;;;;;;2.92;0.85;;;10.80;92.70;;;;;;2092685;28;20032;-66
2024/03/29 05:08:57;;;;;;;3.22;0.90;;;10.70;92.80;;;;;;2095560;28;20063;-65
2024/03/29 05:09:57;;;;;;;4.28;0.80;;;10.80;92.90;;;;;;2093667;28;20028;-66
2024/03/29 05:10:58;;;;;;;2.00;0.80;;;10.80;93.10;;;;;;2094226;28;20067;-66
2024/03/29 05:11:58;;;;;;;3.25;0.73;;;10.80;93.20;;;;;;2092850;28;20102;-67
2024/03/29 05:12:59;;;;;;;4.25;0.85;;;10.80;93.40;;;;;;2093974;28;20033;-66
2024/03/29 05:14:01;;;;;;;3.00;0.90;;;10.80;93.60;;;;;;2093137;28;20570;-67
2024/03/29 05:15:02;;;;;;;1.60;0.60;;;10.80;93.70;;;;;;2094688;28;20701;-66
2024/03/29 05:16:03;;;;;;;2.08;0.70;;;10.80;93.80;;;;;;2091921;28;20412;-66
2024/03/29 05:17:04;;;;;;;1.83;0.80;;;10.80;93.90;;;;;;2095435;28;20025;-66
2024/03/29 05:18:04;;;;;;;2.95;0.90;;;10.80;94.00;;;;;;2091897;28;20033;-66
2024/03/29 05:19:05;;;;;;;4.40;1.15;;;10.80;94.00;;;;;;2092319;28;20033;-66
2024/03/29 05:20:06;;;;;;;3.03;1.00;;;10.80;94.00;;;;;;2093870;28;20120;-66
2024/03/29 05:21:06;;;;;;;3.42;1.13;;;10.70;94.00;;;;;;2085753;28;20529;-66
2024/03/29 05:22:07;;;;;;;1.25;0.90;;;10.70;94.00;;;;;;2085924;28;20030;-65